createdAt,value
2023-02-11T00:00:25.147Z,24.20
2023-02-11T00:01:25.147Z,25.30
2023-02-11T00:02:25.154Z,23.60
2023-02-11T00:03:25.132Z,22.90
2023-02-11T00:04:25.110Z,22.50
2023-02-11T00:05:25.104Z,22.80
2023-02-11T00:06:25.084Z,22.50
2023-02-11T00:07:25.063Z,27.10
2023-02-11T00:08:25.036Z,23.30
2023-02-11T00:09:25.025Z,25.40
2023-02-11T00:10:25.014Z,24.60
2023-02-11T00:11:25.004Z,23.40
2023-02-11T00:12:24.988Z,23.70
2023-02-11T00:13:25.019Z,23.20
2023-02-11T00:14:24.955Z,21.10
2023-02-11T00:15:24.976Z,24.60
2023-02-11T00:16:24.953Z,23.10
2023-02-11T00:17:24.921Z,24.70
2023-02-11T00:18:24.924Z,22.70
2023-02-11T00:19:24.905Z,23.60
2023-02-11T00:20:24.886Z,24.50
2023-02-11T00:21:24.881Z,22.80
2023-02-11T00:22:24.848Z,21.50
2023-02-11T00:23:24.841Z,23.90
2023-02-11T00:24:24.834Z,21.70
2023-02-11T00:25:24.844Z,22.60
2023-02-11T00:26:24.820Z,22.40
2023-02-11T00:27:24.782Z,22.50
2023-02-11T00:28:24.832Z,21.60
2023-02-11T00:29:24.756Z,23.70
2023-02-11T00:30:24.775Z,24.60
2023-02-11T00:31:25.037Z,22.50
2023-02-11T00:32:24.725Z,23.10
2023-02-11T00:33:24.762Z,24.60
2023-02-11T00:34:24.699Z,19.90
2023-02-11T00:35:24.699Z,22.30
2023-02-11T00:36:24.688Z,26.70
2023-02-11T00:37:24.670Z,22.50
2023-02-11T00:38:24.648Z,25.90
2023-02-11T00:39:24.667Z,21.90
2023-02-11T00:40:24.625Z,24.10
2023-02-11T00:41:24.610Z,25.50
2023-02-11T00:42:24.595Z,25.40
2023-02-11T00:43:24.606Z,26.00
2023-02-11T00:44:24.564Z,24.40
2023-02-11T00:45:24.570Z,27.40
2023-02-11T00:46:24.685Z,23.50
2023-02-11T00:47:24.553Z,27.60
2023-02-11T00:48:24.514Z,24.50
2023-02-11T00:49:24.526Z,23.80
2023-02-11T00:50:24.494Z,27.80
2023-02-11T00:51:24.497Z,30.20
2023-02-11T00:52:24.462Z,28.60
2023-02-11T00:53:24.462Z,25.10
2023-02-11T00:54:24.440Z,26.00
2023-02-11T00:55:24.455Z,25.90
2023-02-11T00:56:24.418Z,27.10
2023-02-11T00:57:24.399Z,25.20
2023-02-11T00:58:24.409Z,27.90
2023-02-11T00:59:24.370Z,26.90
2023-02-11T01:00:24.369Z,24.40
2023-02-11T01:01:24.439Z,31.20
2023-02-11T01:02:24.345Z,26.30
2023-02-11T01:03:24.341Z,26.40
2023-02-11T01:04:24.304Z,24.90
2023-02-11T01:05:24.338Z,28.80
2023-02-11T01:06:24.288Z,25.90
2023-02-11T01:07:24.297Z,26.50
2023-02-11T01:08:24.286Z,26.20
2023-02-11T01:09:24.259Z,24.90
2023-02-11T01:10:24.244Z,26.40
2023-02-11T01:11:24.233Z,31.10
2023-02-11T01:12:24.242Z,30.30
2023-02-11T01:13:24.237Z,27.40
2023-02-11T01:14:24.197Z,28.10
2023-02-11T01:15:24.191Z,28.80
2023-02-11T01:16:24.242Z,27.90
2023-02-11T01:17:24.154Z,27.20
2023-02-11T01:18:24.206Z,26.90
2023-02-11T01:19:24.154Z,26.40
2023-02-11T01:20:24.152Z,27.80
2023-02-11T01:21:24.101Z,25.40
2023-02-11T01:22:24.120Z,27.00
2023-02-11T01:23:24.105Z,27.70
2023-02-11T01:24:24.064Z,24.70
2023-02-11T01:25:24.111Z,27.50
2023-02-11T01:26:24.085Z,25.50
2023-02-11T01:27:24.026Z,25.50
2023-02-11T01:28:24.098Z,26.60
2023-02-11T01:29:23.996Z,26.70
2023-02-11T01:30:24.000Z,25.00
2023-02-11T01:31:24.049Z,24.90
2023-02-11T01:32:23.961Z,27.80
2023-02-11T01:33:23.959Z,26.60
2023-02-11T01:34:23.940Z,29.30
2023-02-11T01:35:23.921Z,28.30
2023-02-11T01:36:23.922Z,24.80
2023-02-11T01:37:23.913Z,24.10
2023-02-11T01:38:23.886Z,28.20
2023-02-11T01:39:23.873Z,28.20
2023-02-11T01:40:23.859Z,28.00
2023-02-11T01:41:23.861Z,26.60
2023-02-11T01:42:23.842Z,22.40
2023-02-11T01:43:23.842Z,27.60
2023-02-11T01:44:23.823Z,24.60
2023-02-11T01:45:23.797Z,26.10
2023-02-11T01:46:23.825Z,26.60
2023-02-11T01:47:23.772Z,23.60
2023-02-11T01:48:23.757Z,24.10
2023-02-11T01:49:23.786Z,25.00
2023-02-11T01:50:23.736Z,26.30
2023-02-11T01:51:23.717Z,30.00
2023-02-11T01:52:23.749Z,24.30
2023-02-11T01:53:23.695Z,25.50
2023-02-11T01:54:23.685Z,25.70
2023-02-11T01:55:23.687Z,27.90
2023-02-11T01:56:23.666Z,25.80
2023-02-11T01:57:23.641Z,22.80
2023-02-11T01:58:23.634Z,28.40
2023-02-11T01:59:23.618Z,24.60
2023-02-11T02:00:23.607Z,25.90
2023-02-11T02:01:23.613Z,23.80
2023-02-11T02:02:23.586Z,28.00
2023-02-11T02:03:23.590Z,23.30
2023-02-11T02:04:23.562Z,23.40
2023-02-11T02:05:23.547Z,25.10
2023-02-11T02:06:23.547Z,23.40
2023-02-11T02:07:23.533Z,22.40
2023-02-11T02:08:23.498Z,22.00
2023-02-11T02:09:23.505Z,25.70
2023-02-11T02:10:23.473Z,24.80
2023-02-11T02:11:23.467Z,26.00
2023-02-11T02:12:23.454Z,25.20
2023-02-11T02:13:23.461Z,28.30
2023-02-11T02:14:23.431Z,25.40
2023-02-11T02:15:23.426Z,28.20
2023-02-11T02:16:23.480Z,27.10
2023-02-11T02:17:23.398Z,25.40
2023-02-11T02:18:23.367Z,25.60
2023-02-11T02:19:23.380Z,28.20
2023-02-11T02:20:23.347Z,26.40
2023-02-11T02:21:23.348Z,21.90
2023-02-11T02:22:23.332Z,29.90
2023-02-11T02:23:23.309Z,28.10
2023-02-11T02:24:23.299Z,25.80
2023-02-11T02:25:23.322Z,25.70
2023-02-11T02:26:23.280Z,25.70
2023-02-11T02:27:23.246Z,26.30
2023-02-11T02:28:23.313Z,29.60
2023-02-11T02:29:23.232Z,27.30
2023-02-11T02:30:23.258Z,27.30
2023-02-11T02:31:23.259Z,24.60
2023-02-11T02:32:23.199Z,27.20
2023-02-11T02:33:23.343Z,27.20
2023-02-11T02:34:23.174Z,25.30
2023-02-11T02:35:23.146Z,27.20
2023-02-11T02:36:23.142Z,27.80
2023-02-11T02:37:23.139Z,28.40
2023-02-11T02:38:23.121Z,26.80
2023-02-11T02:39:23.104Z,25.90
2023-02-11T02:40:23.093Z,28.40
2023-02-11T02:41:23.072Z,25.60
2023-02-11T02:42:23.075Z,27.20
2023-02-11T02:43:23.084Z,26.90
2023-02-11T02:44:23.034Z,25.70
2023-02-11T02:45:23.049Z,28.20
2023-02-11T02:46:23.046Z,28.20
2023-02-11T02:47:23.003Z,27.20
2023-02-11T02:48:22.981Z,27.90
2023-02-11T02:49:22.993Z,29.90
2023-02-11T02:50:22.954Z,25.50
2023-02-11T02:51:22.953Z,28.90
2023-02-11T02:52:22.938Z,27.40
2023-02-11T02:53:22.932Z,30.50
2023-02-11T02:54:22.911Z,28.30
2023-02-11T02:55:22.951Z,28.60
2023-02-11T02:56:22.883Z,29.80
2023-02-11T02:57:22.877Z,30.70
2023-02-11T02:58:22.876Z,28.90
2023-02-11T02:59:22.854Z,26.90
2023-02-11T03:00:22.839Z,29.30
2023-02-11T03:01:22.831Z,30.20
2023-02-11T03:02:22.817Z,30.60
2023-02-11T03:03:22.875Z,29.50
2023-02-11T03:04:22.809Z,29.20
2023-02-11T03:05:22.784Z,33.80
2023-02-11T03:06:22.760Z,30.40
2023-02-11T03:07:22.779Z,32.50
2023-02-11T03:08:22.769Z,31.90
2023-02-11T03:09:22.718Z,37.30
2023-02-11T03:10:22.706Z,30.60
2023-02-11T03:11:22.695Z,30.70
2023-02-11T03:12:22.693Z,34.50
2023-02-11T03:13:22.690Z,33.90
2023-02-11T03:14:22.662Z,30.70
2023-02-11T03:15:22.650Z,31.10
2023-02-11T03:16:22.732Z,29.10
2023-02-11T03:17:22.644Z,31.50
2023-02-11T03:18:22.626Z,29.90
2023-02-11T03:19:22.620Z,31.90
2023-02-11T03:20:22.584Z,28.50
2023-02-11T03:21:22.570Z,33.70
2023-02-11T03:22:22.568Z,32.40
2023-02-11T03:23:22.556Z,35.00
2023-02-11T03:24:22.544Z,29.80
2023-02-11T03:25:22.540Z,32.20
2023-02-11T03:26:22.497Z,33.50
2023-02-11T03:27:22.504Z,36.50
2023-02-11T03:28:22.531Z,35.10
2023-02-11T03:29:22.486Z,38.30
2023-02-11T03:30:22.456Z,35.10
2023-02-11T03:31:22.582Z,36.60
2023-02-11T03:32:22.436Z,35.00
2023-02-11T03:33:22.423Z,35.20
2023-02-11T03:34:22.397Z,33.10
2023-02-11T03:35:22.404Z,31.30
2023-02-11T03:36:22.378Z,35.40
2023-02-11T03:37:22.384Z,35.30
2023-02-11T03:38:22.365Z,36.60
2023-02-11T03:39:22.332Z,35.70
2023-02-11T03:40:22.344Z,33.20
2023-02-11T03:41:22.315Z,33.90
2023-02-11T03:42:22.304Z,37.70
2023-02-11T03:43:22.315Z,35.00
2023-02-11T03:44:22.292Z,34.30
2023-02-11T03:45:22.259Z,36.50
2023-02-11T03:46:22.302Z,34.20
2023-02-11T03:47:22.241Z,36.70
2023-02-11T03:48:22.239Z,34.50
2023-02-11T03:49:22.245Z,34.50
2023-02-11T03:50:22.204Z,29.30
2023-02-11T03:51:22.184Z,29.40
2023-02-11T03:52:22.193Z,29.50
2023-02-11T03:53:22.160Z,25.60
2023-02-11T03:54:22.142Z,27.90
2023-02-11T03:55:22.143Z,24.90
2023-02-11T03:56:22.124Z,29.40
2023-02-11T03:57:22.104Z,26.70
2023-02-11T03:58:22.091Z,26.80
2023-02-11T03:59:22.092Z,24.90
2023-02-11T04:00:22.075Z,26.70
2023-02-11T04:01:22.101Z,24.00
2023-02-11T04:02:22.044Z,24.30
2023-02-11T04:03:22.098Z,22.30
2023-02-11T04:04:22.016Z,21.10
2023-02-11T04:05:22.003Z,22.80
2023-02-11T04:06:21.991Z,23.20
2023-02-11T04:07:21.998Z,21.50
2023-02-11T04:08:21.972Z,27.20
2023-02-11T04:09:21.951Z,26.40
2023-02-11T04:10:21.939Z,25.90
2023-02-11T04:11:21.926Z,24.00
2023-02-11T04:12:21.925Z,22.80
2023-02-11T04:13:21.915Z,27.70
2023-02-11T04:14:21.891Z,27.60
2023-02-11T04:15:21.885Z,23.60
2023-02-11T04:16:21.922Z,26.00
2023-02-11T04:17:21.849Z,25.80
2023-02-11T04:18:21.841Z,25.00
2023-02-11T04:19:21.838Z,23.60
2023-02-11T04:20:21.821Z,24.60
2023-02-11T04:21:21.801Z,27.90
2023-02-11T04:22:21.794Z,25.30
2023-02-11T04:23:21.785Z,27.70
2023-02-11T04:24:21.770Z,26.60
2023-02-11T04:25:21.785Z,25.90
2023-02-11T04:26:21.734Z,23.90
2023-02-11T04:27:21.721Z,28.50
2023-02-11T04:28:21.813Z,25.30
2023-02-11T04:29:21.698Z,31.20
2023-02-11T04:30:21.688Z,28.80
2023-02-11T04:31:21.826Z,25.50
2023-02-11T04:32:21.670Z,26.50
2023-02-11T04:33:21.665Z,26.70
2023-02-11T04:34:21.630Z,25.20
2023-02-11T04:35:21.625Z,23.80
2023-02-11T04:36:21.605Z,25.40
2023-02-11T04:37:21.609Z,21.90
2023-02-11T04:38:21.584Z,26.60
2023-02-11T04:39:21.576Z,26.50
2023-02-11T04:40:21.573Z,24.60
2023-02-11T04:41:21.546Z,23.90
2023-02-11T04:42:21.540Z,26.10
2023-02-11T04:43:21.553Z,25.50
2023-02-11T04:44:21.503Z,24.80
2023-02-11T04:45:21.502Z,23.80
2023-02-11T04:46:21.554Z,23.20
2023-02-11T04:47:21.484Z,24.50
2023-02-11T04:48:21.465Z,23.30
2023-02-11T04:49:21.472Z,25.40
2023-02-11T04:50:21.451Z,28.80
2023-02-11T04:51:21.425Z,22.50
2023-02-11T04:52:21.406Z,24.40
2023-02-11T04:53:21.392Z,24.30
2023-02-11T04:54:21.374Z,25.00
2023-02-11T04:55:21.389Z,21.70
2023-02-11T04:56:21.351Z,24.80
2023-02-11T04:57:21.351Z,24.00
2023-02-11T04:58:21.327Z,23.70
2023-02-11T04:59:21.317Z,24.50
2023-02-11T05:00:21.312Z,20.80
2023-02-11T05:01:21.386Z,24.60
2023-02-11T05:02:21.282Z,26.30
2023-02-11T05:03:21.269Z,25.40
2023-02-11T05:04:21.292Z,23.00
2023-02-11T05:05:21.250Z,25.40
2023-02-11T05:06:21.220Z,25.00
2023-02-11T05:07:21.221Z,23.90
2023-02-11T05:08:21.191Z,25.30
2023-02-11T05:09:21.181Z,25.20
2023-02-11T05:10:21.176Z,24.20
2023-02-11T05:11:21.158Z,24.90
2023-02-11T05:12:21.153Z,28.70
2023-02-11T05:13:21.159Z,23.80
2023-02-11T05:14:21.136Z,24.40
2023-02-11T05:15:21.116Z,23.40
2023-02-11T05:16:21.145Z,25.40
2023-02-11T05:17:21.088Z,26.40
2023-02-11T05:18:21.078Z,26.70
2023-02-11T05:19:21.078Z,27.50
2023-02-11T05:20:21.050Z,25.10
2023-02-11T05:21:21.053Z,28.40
2023-02-11T05:22:21.017Z,25.70
2023-02-11T05:23:21.013Z,24.40
2023-02-11T05:24:20.991Z,36.00
2023-02-11T05:25:21.007Z,28.10
2023-02-11T05:26:20.968Z,27.30
2023-02-11T05:27:20.979Z,31.50
2023-02-11T05:28:20.967Z,27.70
2023-02-11T05:29:20.951Z,28.30
2023-02-11T05:30:20.927Z,27.00
2023-02-11T05:31:20.939Z,32.10
2023-02-11T05:32:20.891Z,32.90
2023-02-11T05:33:20.885Z,27.00
2023-02-11T05:34:20.876Z,26.00
2023-02-11T05:35:20.865Z,29.00
2023-02-11T05:36:20.844Z,26.70
2023-02-11T05:37:20.878Z,33.00
2023-02-11T05:38:20.813Z,32.70
2023-02-11T05:39:20.794Z,26.70
2023-02-11T05:40:20.795Z,33.00
2023-02-11T05:41:20.779Z,28.80
2023-02-11T05:42:20.764Z,34.30
2023-02-11T05:43:20.769Z,28.00
2023-02-11T05:44:20.747Z,27.00
2023-02-11T05:45:20.725Z,29.30
2023-02-11T05:46:20.779Z,29.50
2023-02-11T05:47:20.704Z,29.50
2023-02-11T05:48:20.701Z,30.50
2023-02-11T05:49:20.701Z,32.10
2023-02-11T05:50:20.672Z,32.90
2023-02-11T05:51:20.658Z,31.60
2023-02-11T05:52:20.642Z,31.20
2023-02-11T05:53:20.639Z,30.60
2023-02-11T05:54:20.617Z,30.60
2023-02-11T05:55:20.619Z,35.40
2023-02-11T05:56:20.591Z,28.90
2023-02-11T05:57:20.597Z,34.40
2023-02-11T05:58:20.564Z,31.40
2023-02-11T05:59:20.540Z,32.40
2023-02-11T06:00:20.537Z,33.30
2023-02-11T06:01:20.529Z,32.50
2023-02-11T06:02:20.534Z,33.60
2023-02-11T06:03:20.517Z,32.20
2023-02-11T06:04:20.494Z,30.80
2023-02-11T06:05:20.476Z,32.90
2023-02-11T06:06:20.470Z,31.80
2023-02-11T06:07:20.475Z,30.80
2023-02-11T06:08:20.446Z,31.60
2023-02-11T06:09:20.427Z,29.20
2023-02-11T06:10:20.411Z,29.80
2023-02-11T06:11:20.416Z,29.70
2023-02-11T06:12:20.394Z,37.60
2023-02-11T06:13:20.398Z,32.10
2023-02-11T06:14:20.393Z,32.10
2023-02-11T06:15:20.345Z,31.90
2023-02-11T06:16:20.376Z,32.40
2023-02-11T06:17:20.321Z,31.60
2023-02-11T06:18:20.309Z,32.90
2023-02-11T06:19:20.322Z,29.20
2023-02-11T06:20:20.290Z,28.60
2023-02-11T06:21:20.268Z,33.70
2023-02-11T06:22:20.249Z,31.00
2023-02-11T06:23:20.248Z,33.20
2023-02-11T06:24:38.464Z,30.30
2023-02-11T06:25:21.257Z,31.70
2023-02-11T06:26:20.221Z,32.30
2023-02-11T06:27:20.203Z,32.60
2023-02-11T06:28:20.212Z,31.50
2023-02-11T06:29:20.176Z,34.40
2023-02-11T06:30:20.159Z,33.30
2023-02-11T06:31:20.328Z,32.90
2023-02-11T06:32:39.557Z,32.10
2023-02-11T06:33:21.124Z,33.50
2023-02-11T06:34:20.114Z,30.90
2023-02-11T06:35:20.101Z,31.90
2023-02-11T06:36:20.095Z,29.00
2023-02-11T06:37:20.096Z,30.50
2023-02-11T06:38:20.056Z,33.40
2023-02-11T06:39:20.099Z,30.20
2023-02-11T06:40:20.024Z,29.20
2023-02-11T06:41:20.020Z,34.90
2023-02-11T06:42:20.021Z,31.00
2023-02-11T06:43:20.019Z,29.80
2023-02-11T06:44:19.976Z,32.80
2023-02-11T06:45:19.972Z,32.70
2023-02-11T06:46:20.019Z,32.80
2023-02-11T06:47:19.983Z,33.80
2023-02-11T06:48:19.923Z,32.30
2023-02-11T06:49:19.940Z,30.90
2023-02-11T06:50:19.903Z,31.40
2023-02-11T06:51:19.888Z,30.80
2023-02-11T06:52:19.900Z,31.50
2023-02-11T06:53:19.879Z,29.90
2023-02-11T06:54:19.850Z,31.50
2023-02-11T06:55:20.013Z,30.30
2023-02-11T06:56:19.848Z,33.50
2023-02-11T06:57:19.833Z,32.90
2023-02-11T06:58:19.802Z,33.80
2023-02-11T06:59:19.792Z,30.60
2023-02-11T07:00:19.778Z,35.40
2023-02-11T07:01:20.199Z,35.60
2023-02-11T07:02:20.997Z,34.00
2023-02-11T07:03:19.815Z,32.50
2023-02-11T07:04:19.746Z,30.40
2023-02-11T07:05:19.726Z,28.80
2023-02-11T07:06:19.734Z,30.20
2023-02-11T07:07:19.714Z,30.80
2023-02-11T07:08:19.687Z,32.10
2023-02-11T07:09:19.659Z,37.10
2023-02-11T07:10:19.659Z,31.70
2023-02-11T07:11:19.655Z,30.80
2023-02-11T07:12:19.637Z,33.00
2023-02-11T07:13:19.645Z,29.90
2023-02-11T07:14:19.647Z,30.30
2023-02-11T07:15:19.582Z,30.40
2023-02-11T07:16:20.015Z,32.20
2023-02-11T07:17:19.571Z,32.90
2023-02-11T07:18:19.591Z,30.70
2023-02-11T07:19:19.548Z,30.30
2023-02-11T07:20:19.548Z,34.50
2023-02-11T07:21:19.508Z,29.30
2023-02-11T07:22:19.561Z,32.70
2023-02-11T07:23:19.515Z,31.10
2023-02-11T07:24:19.509Z,30.60
2023-02-11T07:25:19.475Z,29.70
2023-02-11T07:26:19.503Z,29.80
2023-02-11T07:27:19.426Z,28.70
2023-02-11T07:28:19.498Z,29.60
2023-02-11T07:29:19.403Z,29.00
2023-02-11T07:30:19.429Z,28.40
2023-02-11T07:31:19.531Z,31.30
2023-02-11T07:32:19.461Z,30.30
2023-02-11T07:33:19.439Z,26.90
2023-02-11T07:34:19.435Z,26.40
2023-02-11T07:35:19.337Z,30.50
2023-02-11T07:36:19.381Z,31.60
2023-02-11T07:37:19.319Z,28.50
2023-02-11T07:38:19.348Z,28.00
2023-02-11T07:39:19.285Z,27.60
2023-02-11T07:40:19.304Z,29.70
2023-02-11T07:41:19.275Z,31.10
2023-02-11T07:42:19.281Z,22.50
2023-02-11T07:43:19.247Z,27.20
2023-02-11T07:44:19.248Z,29.20
2023-02-11T07:45:19.207Z,27.60
2023-02-11T07:46:19.253Z,29.10
2023-02-11T07:47:19.183Z,31.50
2023-02-11T07:48:19.232Z,32.60
2023-02-11T07:49:19.159Z,30.20
2023-02-11T07:50:19.146Z,26.10
2023-02-11T07:51:19.124Z,27.60
2023-02-11T07:52:19.114Z,25.10
2023-02-11T07:53:19.128Z,24.10
2023-02-11T07:54:19.098Z,24.40
2023-02-11T07:55:19.109Z,23.80
2023-02-11T07:56:19.065Z,24.10
2023-02-11T07:57:19.823Z,24.10
2023-02-11T07:58:19.037Z,23.10
2023-02-11T07:59:19.021Z,20.00
2023-02-11T08:00:21.110Z,21.70
2023-02-11T08:01:19.114Z,21.70
2023-02-11T08:02:19.064Z,21.80
2023-02-11T08:03:19.020Z,19.70
2023-02-11T08:04:18.977Z,26.00
2023-02-11T08:05:18.961Z,22.60
2023-02-11T08:06:18.929Z,22.00
2023-02-11T08:07:18.948Z,22.80
2023-02-11T08:08:18.921Z,22.10
2023-02-11T08:09:18.888Z,21.20
2023-02-11T08:10:18.918Z,26.10
2023-02-11T08:11:18.887Z,22.90
2023-02-11T08:12:24.116Z,21.30
2023-02-11T08:13:18.884Z,20.60
2023-02-11T08:14:18.878Z,26.80
2023-02-11T08:15:18.804Z,20.20
2023-02-11T08:16:33.643Z,23.40
2023-02-11T08:17:18.780Z,21.40
2023-02-11T08:18:18.788Z,20.50
2023-02-11T08:19:18.824Z,19.10
2023-02-11T08:20:18.899Z,21.30
2023-02-11T08:21:22.038Z,18.50
2023-02-11T08:22:18.743Z,22.30
2023-02-11T08:23:18.731Z,19.20
2023-02-11T08:24:18.723Z,21.30
2023-02-11T08:25:18.706Z,21.10
2023-02-11T08:26:18.677Z,23.50
2023-02-11T08:27:18.672Z,20.70
2023-02-11T08:28:18.718Z,21.20
2023-02-11T08:29:18.638Z,21.80
2023-02-11T08:30:18.648Z,21.80
2023-02-11T08:31:18.781Z,23.10
2023-02-11T08:32:18.650Z,20.10
2023-02-11T08:33:18.572Z,21.50
2023-02-11T08:34:18.570Z,20.90
2023-02-11T08:35:18.554Z,19.00
2023-02-11T08:36:18.613Z,20.10
2023-02-11T08:37:18.578Z,20.40
2023-02-11T08:38:18.525Z,20.40
2023-02-11T08:39:20.272Z,20.40
2023-02-11T08:40:18.477Z,20.70
2023-02-11T08:41:18.483Z,17.60
2023-02-11T08:42:18.465Z,18.70
2023-02-11T08:43:18.457Z,19.10
2023-02-11T08:44:18.500Z,20.60
2023-02-11T08:45:18.413Z,17.80
2023-02-11T08:46:18.459Z,19.40
2023-02-11T08:47:18.416Z,18.60
2023-02-11T08:48:18.387Z,21.30
2023-02-11T08:49:18.735Z,20.90
2023-02-11T08:50:18.506Z,21.80
2023-02-11T08:51:18.703Z,17.50
2023-02-11T08:52:18.436Z,17.60
2023-02-11T08:53:18.306Z,16.40
2023-02-11T08:54:18.305Z,16.80
2023-02-11T08:55:18.301Z,17.40
2023-02-11T08:56:18.429Z,16.40
2023-02-11T08:57:18.416Z,16.20
2023-02-11T08:58:19.261Z,17.90
2023-02-11T08:59:18.689Z,17.80
2023-02-11T09:00:18.217Z,18.00
2023-02-11T09:01:18.302Z,17.60
2023-02-11T09:02:18.262Z,15.00
2023-02-11T09:03:18.181Z,18.90
2023-02-11T09:04:18.184Z,21.00
2023-02-11T09:05:18.154Z,16.30
2023-02-11T09:06:18.165Z,19.10
2023-02-11T09:07:18.158Z,18.60
2023-02-11T09:08:18.122Z,19.20
2023-02-11T09:09:18.096Z,16.50
2023-02-11T09:10:18.096Z,15.70
2023-02-11T09:11:18.076Z,17.60
2023-02-11T09:12:18.084Z,17.30
2023-02-11T09:13:18.105Z,17.60
2023-02-11T09:14:18.031Z,17.80
2023-02-11T09:15:18.009Z,19.30
2023-02-11T09:16:18.431Z,18.70
2023-02-11T09:17:18.014Z,18.00
2023-02-11T09:18:17.975Z,17.80
2023-02-11T09:19:17.983Z,20.60
2023-02-11T09:20:17.947Z,18.20
2023-02-11T09:21:17.943Z,16.80
2023-02-11T09:22:18.063Z,18.80
2023-02-11T09:23:18.656Z,17.70
2023-02-11T09:24:18.106Z,17.50
2023-02-11T09:25:17.921Z,18.80
2023-02-11T09:26:17.872Z,19.80
2023-02-11T09:27:17.871Z,19.20
2023-02-11T09:28:17.879Z,20.20
2023-02-11T09:29:17.902Z,19.80
2023-02-11T09:30:17.825Z,19.90
2023-02-11T09:31:17.934Z,18.40
2023-02-11T09:32:17.922Z,19.70
2023-02-11T09:33:17.786Z,20.20
2023-02-11T09:34:17.792Z,20.80
2023-02-11T09:35:17.753Z,20.50
2023-02-11T09:36:17.746Z,21.10
2023-02-11T09:37:17.755Z,24.50
2023-02-11T09:38:17.745Z,24.50
2023-02-11T09:39:17.849Z,20.80
2023-02-11T09:40:17.680Z,27.20
2023-02-11T09:41:17.706Z,20.80
2023-02-11T09:42:17.667Z,23.10
2023-02-11T09:43:17.810Z,20.30
2023-02-11T09:44:17.691Z,19.20
2023-02-11T09:45:17.643Z,21.50
2023-02-11T09:46:17.745Z,25.00
2023-02-11T09:47:18.565Z,25.70
2023-02-11T09:48:17.648Z,23.10
2023-02-11T09:49:17.635Z,24.00
2023-02-11T09:50:17.559Z,22.00
2023-02-11T09:51:17.550Z,21.10
2023-02-11T09:52:18.668Z,22.20
2023-02-11T09:53:18.066Z,25.30
2023-02-11T09:54:17.530Z,24.90
2023-02-11T09:55:17.545Z,22.60
2023-02-11T09:56:17.524Z,24.00
2023-02-11T09:57:28.140Z,25.30
2023-02-11T09:58:18.494Z,20.80
2023-02-11T09:59:17.457Z,25.40
2023-02-11T10:00:17.454Z,23.30
2023-02-11T10:01:19.959Z,24.80
2023-02-11T10:02:17.432Z,26.00
2023-02-11T10:03:22.359Z,22.20
2023-02-11T10:04:17.414Z,20.00
2023-02-11T10:05:17.363Z,22.10
2023-02-11T10:06:17.375Z,27.20
2023-02-11T10:07:17.375Z,23.50
2023-02-11T10:08:17.334Z,23.20
2023-02-11T10:09:17.346Z,25.90
2023-02-11T10:10:17.306Z,26.10
2023-02-11T10:11:30.602Z,22.30
2023-02-11T10:12:18.645Z,25.90
2023-02-11T10:13:17.397Z,23.60
2023-02-11T10:14:17.337Z,22.00
2023-02-11T10:15:17.476Z,22.20
2023-02-11T10:16:17.272Z,22.90
2023-02-11T10:17:17.217Z,22.40
2023-02-11T10:18:17.239Z,25.60
2023-02-11T10:19:17.201Z,21.70
2023-02-11T10:20:17.334Z,22.80
2023-02-11T10:21:17.172Z,20.90
2023-02-11T10:22:17.171Z,21.30
2023-02-11T10:23:17.124Z,22.90
2023-02-11T10:24:17.157Z,25.80
2023-02-11T10:25:17.123Z,22.80
2023-02-11T10:26:17.093Z,23.00
2023-02-11T10:27:17.092Z,25.60
2023-02-11T10:28:17.148Z,24.20
2023-02-11T10:29:17.095Z,22.00
2023-02-11T10:30:17.052Z,19.90
2023-02-11T10:31:17.181Z,21.30
2023-02-11T10:32:17.013Z,22.20
2023-02-11T10:33:17.032Z,23.20
2023-02-11T10:34:17.019Z,19.90
2023-02-11T10:35:16.970Z,22.50
2023-02-11T10:36:16.963Z,21.30
2023-02-11T10:37:16.938Z,22.20
2023-02-11T10:38:16.929Z,21.10
2023-02-11T10:39:16.963Z,21.90
2023-02-11T10:40:16.921Z,22.10
2023-02-11T10:41:16.897Z,24.10
2023-02-11T10:42:16.894Z,20.50
2023-02-11T10:43:16.882Z,19.50
2023-02-11T10:44:16.881Z,20.60
2023-02-11T10:45:16.840Z,21.40
2023-02-11T10:46:16.902Z,21.80
2023-02-11T10:47:16.804Z,22.00
2023-02-11T10:48:16.827Z,19.00
2023-02-11T10:49:16.793Z,21.40
2023-02-11T10:50:16.803Z,21.50
2023-02-11T10:51:16.764Z,22.00
2023-02-11T10:52:16.758Z,20.00
2023-02-11T10:53:16.719Z,19.40
2023-02-11T10:54:16.747Z,14.90
2023-02-11T10:55:16.736Z,17.70
2023-02-11T10:56:16.694Z,19.20
2023-02-11T10:57:16.694Z,19.60
2023-02-11T10:58:16.671Z,18.30
2023-02-11T10:59:17.723Z,21.30
2023-02-11T11:00:16.690Z,19.70
2023-02-11T11:01:24.275Z,20.20
2023-02-11T11:02:17.643Z,19.10
2023-02-11T11:03:16.592Z,18.50
2023-02-11T11:04:16.645Z,16.80
2023-02-11T11:05:16.620Z,17.90
2023-02-11T11:06:16.568Z,18.50
2023-02-11T11:07:17.281Z,15.60
2023-02-11T11:08:16.532Z,16.10
2023-02-11T11:09:16.694Z,19.00
2023-02-11T11:10:16.530Z,18.70
2023-02-11T11:11:16.527Z,18.90
2023-02-11T11:12:16.598Z,20.30
2023-02-11T11:13:16.461Z,18.00
2023-02-11T11:14:16.467Z,20.90
2023-02-11T11:15:16.436Z,15.60
2023-02-11T11:16:16.539Z,19.80
2023-02-11T11:17:16.438Z,17.50
2023-02-11T11:18:22.512Z,17.00
2023-02-11T11:19:17.387Z,16.20
2023-02-11T11:20:16.402Z,17.20
2023-02-11T11:21:16.397Z,18.70
2023-02-11T11:22:16.348Z,16.90
2023-02-11T11:23:16.363Z,21.50
2023-02-11T11:24:16.337Z,18.10
2023-02-11T11:25:16.289Z,18.00
2023-02-11T11:26:16.319Z,16.70
2023-02-11T11:27:16.298Z,17.20
2023-02-11T11:28:16.279Z,19.10
2023-02-11T11:29:16.292Z,15.60
2023-02-11T11:30:16.273Z,17.20
2023-02-11T11:31:16.385Z,16.80
2023-02-11T11:32:17.795Z,17.70
2023-02-11T11:33:16.201Z,17.20
2023-02-11T11:34:16.214Z,17.20
2023-02-11T11:35:16.166Z,17.50
2023-02-11T11:36:16.234Z,19.20
2023-02-11T11:37:16.143Z,16.90
2023-02-11T11:38:16.135Z,18.60
2023-02-11T11:39:16.125Z,17.90
2023-02-11T11:40:16.148Z,17.10
2023-02-11T11:41:16.192Z,19.60
2023-02-11T11:42:16.080Z,18.00
2023-02-11T11:43:16.059Z,15.60
2023-02-11T11:44:16.098Z,16.20
2023-02-11T11:45:16.032Z,17.50
2023-02-11T11:46:16.032Z,17.90
2023-02-11T11:47:16.676Z,17.70
2023-02-11T11:48:15.996Z,17.50
2023-02-11T11:49:15.960Z,16.20
2023-02-11T11:50:16.038Z,15.70
2023-02-11T11:51:15.947Z,17.20
2023-02-11T11:52:15.958Z,19.70
2023-02-11T11:53:15.908Z,15.10
2023-02-11T11:54:15.920Z,15.40
2023-02-11T11:55:15.900Z,13.60
2023-02-11T11:56:15.876Z,14.00
2023-02-11T11:57:15.890Z,15.80
2023-02-11T11:58:15.855Z,14.10
2023-02-11T11:59:15.828Z,16.10
2023-02-11T12:00:15.844Z,14.20
2023-02-11T12:01:15.843Z,13.90
2023-02-11T12:02:15.862Z,13.70
2023-02-11T12:03:15.856Z,15.60
2023-02-11T12:04:15.793Z,14.10
2023-02-11T12:05:15.756Z,15.00
2023-02-11T12:06:15.756Z,14.40
2023-02-11T12:07:15.739Z,13.10
2023-02-11T12:08:15.726Z,15.00
2023-02-11T12:09:15.718Z,13.60
2023-02-11T12:10:15.685Z,11.90
2023-02-11T12:11:15.687Z,12.90
2023-02-11T12:12:15.693Z,16.80
2023-02-11T12:13:15.647Z,13.40
2023-02-11T12:14:15.660Z,12.10
2023-02-11T12:15:15.623Z,15.50
2023-02-11T12:16:15.645Z,15.00
2023-02-11T12:17:15.640Z,15.00
2023-02-11T12:18:15.599Z,14.70
2023-02-11T12:19:15.578Z,14.30
2023-02-11T12:20:15.557Z,16.30
2023-02-11T12:21:15.540Z,16.10
2023-02-11T12:22:15.527Z,13.00
2023-02-11T12:23:15.571Z,16.60
2023-02-11T12:24:17.337Z,16.40
2023-02-11T12:25:15.476Z,14.10
2023-02-11T12:26:15.477Z,15.50
2023-02-11T12:27:15.471Z,14.70
2023-02-11T12:28:15.496Z,15.60
2023-02-11T12:29:15.432Z,14.70
2023-02-11T12:30:15.444Z,14.20
2023-02-11T12:31:15.571Z,15.50
2023-02-11T12:32:15.528Z,16.30
2023-02-11T12:33:15.377Z,12.30
2023-02-11T12:34:15.425Z,13.80
2023-02-11T12:35:15.379Z,13.80
2023-02-11T12:36:15.376Z,12.90
2023-02-11T12:37:15.335Z,12.60
2023-02-11T12:38:15.311Z,13.40
2023-02-11T12:39:15.318Z,13.70
2023-02-11T12:40:15.302Z,13.00
2023-02-11T12:41:15.343Z,14.20
2023-02-11T12:42:15.300Z,14.90
2023-02-11T12:43:15.240Z,12.80
2023-02-11T12:44:15.246Z,16.10
2023-02-11T12:45:15.218Z,12.50
2023-02-11T12:46:15.282Z,12.70
2023-02-11T12:47:15.231Z,14.70
2023-02-11T12:48:15.190Z,15.30
2023-02-11T12:49:15.170Z,11.50
2023-02-11T12:50:15.172Z,12.00
2023-02-11T12:51:15.173Z,12.20
2023-02-11T12:52:15.161Z,14.20